sensor_id;sensor_type;location;lat;lon;timestamp;P1;durP1;ratioP1;P2;durP2;ratioP2
60847;SDS011;46681;47.696;9.140;2023-06-14T00:00:48;3.33;;;2.73;;
60847;SDS011;46681;47.696;9.140;2023-06-14T00:03:14;3.17;;;2.97;;
60847;SDS011;46681;47.696;9.140;2023-06-14T00:05:40;2.70;;;2.50;;
60847;SDS011;46681;47.696;9.140;2023-06-14T00:08:09;3.87;;;2.80;;
60847;SDS011;46681;47.696;9.140;2023-06-14T00:10:35;2.97;;;2.77;;
60847;SDS011;46681;47.696;9.140;2023-06-14T00:13:02;3.43;;;2.80;;
60847;SDS011;46681;47.696;9.140;2023-06-14T00:15:28;3.17;;;2.87;;
60847;SDS011;46681;47.696;9.140;2023-06-14T00:17:54;2.70;;;2.50;;
60847;SDS011;46681;47.696;9.140;2023-06-14T00:20:20;3.27;;;3.07;;
60847;SDS011;46681;47.696;9.140;2023-06-14T00:22:45;2.60;;;2.40;;
60847;SDS011;46681;47.696;9.140;2023-06-14T00:25:11;2.80;;;2.60;;
60847;SDS011;46681;47.696;9.140;2023-06-14T00:27:37;2.87;;;2.53;;
60847;SDS011;46681;47.696;9.140;2023-06-14T00:30:03;3.20;;;3.00;;
60847;SDS011;46681;47.696;9.140;2023-06-14T00:32:28;3.20;;;2.90;;
60847;SDS011;46681;47.696;9.140;2023-06-14T00:34:55;3.70;;;2.87;;
60847;SDS011;46681;47.696;9.140;2023-06-14T00:37:20;2.83;;;2.40;;
60847;SDS011;46681;47.696;9.140;2023-06-14T00:39:46;2.87;;;2.57;;
60847;SDS011;46681;47.696;9.140;2023-06-14T00:42:22;2.80;;;2.60;;
60847;SDS011;46681;47.696;9.140;2023-06-14T00:44:49;4.03;;;2.60;;
60847;SDS011;46681;47.696;9.140;2023-06-14T00:47:16;3.10;;;2.90;;
60847;SDS011;46681;47.696;9.140;2023-06-14T00:49:45;2.77;;;2.57;;
60847;SDS011;46681;47.696;9.140;2023-06-14T00:52:11;3.33;;;2.80;;
60847;SDS011;46681;47.696;9.140;2023-06-14T00:54:37;3.17;;;2.93;;
60847;SDS011;46681;47.696;9.140;2023-06-14T00:57:03;3.53;;;2.90;;
60847;SDS011;46681;47.696;9.140;2023-06-14T00:59:31;5.70;;;3.10;;
60847;SDS011;46681;47.696;9.140;2023-06-14T01:01:56;4.57;;;3.00;;
60847;SDS011;46681;47.696;9.140;2023-06-14T01:04:25;3.23;;;2.63;;
60847;SDS011;46681;47.696;9.140;2023-06-14T01:09:58;3.87;;;3.03;;
60847;SDS011;46681;47.696;9.140;2023-06-14T01:15:34;4.03;;;2.73;;
60847;SDS011;46681;47.696;9.140;2023-06-14T01:18:03;2.83;;;2.63;;
60847;SDS011;46681;47.696;9.140;2023-06-14T01:20:30;3.33;;;2.43;;
60847;SDS011;46681;47.696;9.140;2023-06-14T01:22:57;2.93;;;2.73;;
60847;SDS011;46681;47.696;9.140;2023-06-14T01:25:23;3.27;;;2.97;;
60847;SDS011;46681;47.696;9.140;2023-06-14T01:27:49;3.60;;;3.30;;
60847;SDS011;46681;47.696;9.140;2023-06-14T01:30:20;3.67;;;2.70;;
60847;SDS011;46681;47.696;9.140;2023-06-14T01:32:47;3.07;;;2.87;;
60847;SDS011;46681;47.696;9.140;2023-06-14T01:35:21;3.00;;;2.80;;
60847;SDS011;46681;47.696;9.140;2023-06-14T01:37:51;3.50;;;3.20;;
60847;SDS011;46681;47.696;9.140;2023-06-14T01:40:19;2.90;;;2.70;;
60847;SDS011;46681;47.696;9.140;2023-06-14T01:42:46;3.20;;;2.83;;
60847;SDS011;46681;47.696;9.140;2023-06-14T01:45:15;2.73;;;2.60;;
60847;SDS011;46681;47.696;9.140;2023-06-14T01:47:41;2.67;;;2.53;;
60847;SDS011;46681;47.696;9.140;2023-06-14T01:50:07;3.33;;;2.83;;
60847;SDS011;46681;47.696;9.140;2023-06-14T01:52:32;4.20;;;3.33;;
60847;SDS011;46681;47.696;9.140;2023-06-14T01:54:58;3.40;;;2.77;;
60847;SDS011;46681;47.696;9.140;2023-06-14T01:57:24;2.30;;;2.20;;
60847;SDS011;46681;47.696;9.140;2023-06-14T01:59:52;3.17;;;2.90;;
60847;SDS011;46681;47.696;9.140;2023-06-14T02:02:19;2.83;;;2.63;;
60847;SDS011;46681;47.696;9.140;2023-06-14T02:04:45;2.77;;;2.57;;
60847;SDS011;46681;47.696;9.140;2023-06-14T02:07:10;2.80;;;2.50;;
60847;SDS011;46681;47.696;9.140;2023-06-14T02:09:36;3.87;;;2.90;;
60847;SDS011;46681;47.696;9.140;2023-06-14T02:12:01;2.80;;;2.60;;
60847;SDS011;46681;47.696;9.140;2023-06-14T02:14:27;3.00;;;2.70;;
60847;SDS011;46681;47.696;9.140;2023-06-14T02:16:54;3.97;;;2.77;;
60847;SDS011;46681;47.696;9.140;2023-06-14T02:19:20;2.80;;;2.60;;
60847;SDS011;46681;47.696;9.140;2023-06-14T02:21:45;3.50;;;3.10;;
60847;SDS011;46681;47.696;9.140;2023-06-14T02:24:12;3.90;;;3.17;;
60847;SDS011;46681;47.696;9.140;2023-06-14T02:26:38;3.10;;;2.90;;
60847;SDS011;46681;47.696;9.140;2023-06-14T02:29:07;3.17;;;2.97;;
60847;SDS011;46681;47.696;9.140;2023-06-14T02:31:32;3.13;;;2.80;;
60847;SDS011;46681;47.696;9.140;2023-06-14T02:33:58;3.20;;;3.00;;
60847;SDS011;46681;47.696;9.140;2023-06-14T02:36:25;3.17;;;2.83;;
60847;SDS011;46681;47.696;9.140;2023-06-14T02:38:51;2.90;;;2.70;;
60847;SDS011;46681;47.696;9.140;2023-06-14T02:41:17;3.20;;;2.80;;
60847;SDS011;46681;47.696;9.140;2023-06-14T02:43:42;3.90;;;2.93;;
60847;SDS011;46681;47.696;9.140;2023-06-14T02:46:08;3.00;;;2.80;;
60847;SDS011;46681;47.696;9.140;2023-06-14T02:48:35;2.60;;;2.40;;
60847;SDS011;46681;47.696;9.140;2023-06-14T02:51:01;3.63;;;3.00;;
60847;SDS011;46681;47.696;9.140;2023-06-14T02:53:27;3.20;;;3.00;;
60847;SDS011;46681;47.696;9.140;2023-06-14T02:55:52;2.83;;;2.63;;
60847;SDS011;46681;47.696;9.140;2023-06-14T02:58:19;3.17;;;2.97;;
60847;SDS011;46681;47.696;9.140;2023-06-14T03:00:45;2.80;;;2.60;;
60847;SDS011;46681;47.696;9.140;2023-06-14T03:03:10;4.63;;;3.10;;
60847;SDS011;46681;47.696;9.140;2023-06-14T03:05:36;3.50;;;2.50;;
60847;SDS011;46681;47.696;9.140;2023-06-14T03:08:01;2.87;;;2.67;;
60847;SDS011;46681;47.696;9.140;2023-06-14T03:10:27;3.20;;;2.57;;
60847;SDS011;46681;47.696;9.140;2023-06-14T03:12:52;3.00;;;2.70;;
60847;SDS011;46681;47.696;9.140;2023-06-14T03:15:18;2.97;;;2.77;;
60847;SDS011;46681;47.696;9.140;2023-06-14T03:17:43;2.70;;;2.50;;
60847;SDS011;46681;47.696;9.140;2023-06-14T03:20:09;2.83;;;2.63;;
60847;SDS011;46681;47.696;9.140;2023-06-14T03:22:39;2.77;;;2.53;;
60847;SDS011;46681;47.696;9.140;2023-06-14T03:25:05;2.80;;;2.37;;
60847;SDS011;46681;47.696;9.140;2023-06-14T03:27:31;5.07;;;3.00;;
60847;SDS011;46681;47.696;9.140;2023-06-14T03:29:56;3.20;;;2.73;;
60847;SDS011;46681;47.696;9.140;2023-06-14T03:32:22;3.17;;;2.97;;
60847;SDS011;46681;47.696;9.140;2023-06-14T03:34:47;3.47;;;3.03;;
60847;SDS011;46681;47.696;9.140;2023-06-14T03:37:13;4.80;;;2.80;;
60847;SDS011;46681;47.696;9.140;2023-06-14T03:39:39;4.17;;;3.00;;
60847;SDS011;46681;47.696;9.140;2023-06-14T03:42:05;2.80;;;2.60;;
60847;SDS011;46681;47.696;9.140;2023-06-14T03:44:31;3.27;;;3.07;;
60847;SDS011;46681;47.696;9.140;2023-06-14T03:46:56;2.83;;;2.63;;
60847;SDS011;46681;47.696;9.140;2023-06-14T03:49:22;3.00;;;2.80;;
60847;SDS011;46681;47.696;9.140;2023-06-14T03:51:50;3.50;;;3.20;;
60847;SDS011;46681;47.696;9.140;2023-06-14T03:54:18;3.13;;;2.93;;
60847;SDS011;46681;47.696;9.140;2023-06-14T03:56:43;3.43;;;3.13;;
60847;SDS011;46681;47.696;9.140;2023-06-14T03:59:09;3.47;;;3.17;;
60847;SDS011;46681;47.696;9.140;2023-06-14T04:01:39;3.30;;;3.00;;
60847;SDS011;46681;47.696;9.140;2023-06-14T04:04:05;3.43;;;3.13;;
60847;SDS011;46681;47.696;9.140;2023-06-14T04:06:30;3.87;;;3.27;;
60847;SDS011;46681;47.696;9.140;2023-06-14T04:08:56;2.93;;;2.67;;
60847;SDS011;46681;47.696;9.140;2023-06-14T04:11:22;3.27;;;2.97;;
60847;SDS011;46681;47.696;9.140;2023-06-14T04:13:48;3.57;;;3.27;;
60847;SDS011;46681;47.696;9.140;2023-06-14T04:16:13;3.10;;;2.80;;
60847;SDS011;46681;47.696;9.140;2023-06-14T04:18:44;3.00;;;2.80;;
60847;SDS011;46681;47.696;9.140;2023-06-14T04:21:10;4.10;;;2.87;;
60847;SDS011;46681;47.696;9.140;2023-06-14T04:23:35;3.90;;;3.07;;
60847;SDS011;46681;47.696;9.140;2023-06-14T04:26:01;3.20;;;2.97;;
60847;SDS011;46681;47.696;9.140;2023-06-14T04:28:29;7.33;;;2.80;;
60847;SDS011;46681;47.696;9.140;2023-06-14T04:30:56;2.90;;;2.70;;
60847;SDS011;46681;47.696;9.140;2023-06-14T04:33:24;3.30;;;2.90;;
60847;SDS011;46681;47.696;9.140;2023-06-14T04:35:49;3.93;;;3.13;;
60847;SDS011;46681;47.696;9.140;2023-06-14T04:38:16;7.50;;;3.00;;
60847;SDS011;46681;47.696;9.140;2023-06-14T04:40:41;5.70;;;2.80;;
60847;SDS011;46681;47.696;9.140;2023-06-14T04:43:11;8.87;;;3.10;;
60847;SDS011;46681;47.696;9.140;2023-06-14T04:45:44;3.70;;;3.00;;
60847;SDS011;46681;47.696;9.140;2023-06-14T04:48:13;4.77;;;3.10;;
60847;SDS011;46681;47.696;9.140;2023-06-14T04:50:41;6.27;;;2.73;;
60847;SDS011;46681;47.696;9.140;2023-06-14T04:53:06;6.83;;;2.83;;
60847;SDS011;46681;47.696;9.140;2023-06-14T04:55:40;6.23;;;2.97;;
60847;SDS011;46681;47.696;9.140;2023-06-14T04:58:08;3.90;;;2.53;;
60847;SDS011;46681;47.696;9.140;2023-06-14T05:00:36;4.47;;;2.87;;
60847;SDS011;46681;47.696;9.140;2023-06-14T05:03:08;3.13;;;2.83;;
60847;SDS011;46681;47.696;9.140;2023-06-14T05:05:36;3.77;;;2.77;;
60847;SDS011;46681;47.696;9.140;2023-06-14T05:08:05;5.20;;;3.00;;
60847;SDS011;46681;47.696;9.140;2023-06-14T05:10:32;3.20;;;2.90;;
60847;SDS011;46681;47.696;9.140;2023-06-14T05:13:04;2.83;;;2.63;;
60847;SDS011;46681;47.696;9.140;2023-06-14T05:15:35;3.43;;;3.13;;
60847;SDS011;46681;47.696;9.140;2023-06-14T05:18:14;5.77;;;3.30;;
60847;SDS011;46681;47.696;9.140;2023-06-14T05:20:47;4.17;;;2.63;;
60847;SDS011;46681;47.696;9.140;2023-06-14T05:23:18;3.47;;;3.17;;
60847;SDS011;46681;47.696;9.140;2023-06-14T05:25:58;3.10;;;2.80;;
60847;SDS011;46681;47.696;9.140;2023-06-14T05:31:30;7.40;;;3.10;;
60847;SDS011;46681;47.696;9.140;2023-06-14T05:34:02;5.17;;;3.17;;
60847;SDS011;46681;47.696;9.140;2023-06-14T05:36:30;4.97;;;3.10;;
60847;SDS011;46681;47.696;9.140;2023-06-14T05:39:10;6.77;;;3.27;;
60847;SDS011;46681;47.696;9.140;2023-06-14T05:42:40;9.57;;;3.60;;
60847;SDS011;46681;47.696;9.140;2023-06-14T05:45:09;4.57;;;3.00;;
60847;SDS011;46681;47.696;9.140;2023-06-14T05:47:48;5.83;;;3.30;;
60847;SDS011;46681;47.696;9.140;2023-06-14T05:50:14;3.10;;;2.80;;
60847;SDS011;46681;47.696;9.140;2023-06-14T05:53:00;7.10;;;3.40;;
60847;SDS011;46681;47.696;9.140;2023-06-14T05:55:33;5.63;;;3.27;;
60847;SDS011;46681;47.696;9.140;2023-06-14T05:58:09;5.63;;;3.67;;
60847;SDS011;46681;47.696;9.140;2023-06-14T06:00:36;3.90;;;3.50;;
60847;SDS011;46681;47.696;9.140;2023-06-14T06:03:05;18.37;;;4.00;;
60847;SDS011;46681;47.696;9.140;2023-06-14T06:05:56;7.87;;;4.00;;
60847;SDS011;46681;47.696;9.140;2023-06-14T06:08:22;18.03;;;3.50;;
60847;SDS011;46681;47.696;9.140;2023-06-14T06:10:58;7.10;;;3.40;;
60847;SDS011;46681;47.696;9.140;2023-06-14T06:13:26;5.90;;;3.80;;
60847;SDS011;46681;47.696;9.140;2023-06-14T06:15:56;8.70;;;3.73;;
60847;SDS011;46681;47.696;9.140;2023-06-14T06:18:36;5.23;;;3.30;;
60847;SDS011;46681;47.696;9.140;2023-06-14T06:21:07;4.63;;;3.43;;
60847;SDS011;46681;47.696;9.140;2023-06-14T06:23:35;6.10;;;3.60;;
60847;SDS011;46681;47.696;9.140;2023-06-14T06:26:18;7.53;;;3.73;;
60847;SDS011;46681;47.696;9.140;2023-06-14T06:28:46;5.70;;;3.10;;
60847;SDS011;46681;47.696;9.140;2023-06-14T06:31:12;7.40;;;3.57;;
60847;SDS011;46681;47.696;9.140;2023-06-14T06:33:50;4.17;;;2.70;;
60847;SDS011;46681;47.696;9.140;2023-06-14T06:36:27;4.87;;;3.13;;
60847;SDS011;46681;47.696;9.140;2023-06-14T06:38:56;3.67;;;3.10;;
60847;SDS011;46681;47.696;9.140;2023-06-14T06:44:10;3.60;;;3.23;;
60847;SDS011;46681;47.696;9.140;2023-06-14T06:46:47;3.30;;;2.90;;
60847;SDS011;46681;47.696;9.140;2023-06-14T06:49:16;4.13;;;2.87;;
60847;SDS011;46681;47.696;9.140;2023-06-14T06:57:49;4.33;;;2.97;;
60847;SDS011;46681;47.696;9.140;2023-06-14T07:00:22;4.37;;;3.13;;
60847;SDS011;46681;47.696;9.140;2023-06-14T07:03:11;4.13;;;3.57;;
60847;SDS011;46681;47.696;9.140;2023-06-14T07:05:45;5.20;;;2.83;;
60847;SDS011;46681;47.696;9.140;2023-06-14T07:14:30;4.07;;;3.10;;
60847;SDS011;46681;47.696;9.140;2023-06-14T07:17:15;4.07;;;2.80;;
60847;SDS011;46681;47.696;9.140;2023-06-14T07:19:50;3.23;;;2.90;;
60847;SDS011;46681;47.696;9.140;2023-06-14T07:22:29;3.67;;;3.33;;
60847;SDS011;46681;47.696;9.140;2023-06-14T07:25:06;5.00;;;2.70;;
60847;SDS011;46681;47.696;9.140;2023-06-14T07:27:44;4.03;;;2.60;;
60847;SDS011;46681;47.696;9.140;2023-06-14T07:30:26;5.03;;;2.90;;
60847;SDS011;46681;47.696;9.140;2023-06-14T07:32:54;2.90;;;2.70;;
60847;SDS011;46681;47.696;9.140;2023-06-14T07:35:23;3.70;;;2.70;;
60847;SDS011;46681;47.696;9.140;2023-06-14T07:37:53;4.23;;;2.60;;
60847;SDS011;46681;47.696;9.140;2023-06-14T07:40:38;5.87;;;3.00;;
60847;SDS011;46681;47.696;9.140;2023-06-14T07:43:16;2.70;;;2.50;;
60847;SDS011;46681;47.696;9.140;2023-06-14T07:45:58;2.60;;;2.40;;
60847;SDS011;46681;47.696;9.140;2023-06-14T07:48:29;4.67;;;3.00;;
60847;SDS011;46681;47.696;9.140;2023-06-14T07:50:55;3.77;;;2.30;;
60847;SDS011;46681;47.696;9.140;2023-06-14T07:53:39;3.30;;;2.80;;
60847;SDS011;46681;47.696;9.140;2023-06-14T07:56:27;2.60;;;2.40;;
60847;SDS011;46681;47.696;9.140;2023-06-14T08:02:02;4.33;;;2.80;;
60847;SDS011;46681;47.696;9.140;2023-06-14T08:04:46;5.53;;;3.17;;
60847;SDS011;46681;47.696;9.140;2023-06-14T08:07:39;4.90;;;2.60;;
60847;SDS011;46681;47.696;9.140;2023-06-14T08:10:09;2.77;;;2.57;;
60847;SDS011;46681;47.696;9.140;2023-06-14T08:13:05;2.90;;;2.70;;
60847;SDS011;46681;47.696;9.140;2023-06-14T08:18:37;3.10;;;2.67;;
60847;SDS011;46681;47.696;9.140;2023-06-14T08:21:05;2.67;;;2.47;;
60847;SDS011;46681;47.696;9.140;2023-06-14T08:23:34;3.93;;;2.20;;
60847;SDS011;46681;47.696;9.140;2023-06-14T08:26:27;2.77;;;2.37;;
60847;SDS011;46681;47.696;9.140;2023-06-14T08:29:06;4.80;;;2.53;;
60847;SDS011;46681;47.696;9.140;2023-06-14T08:31:38;2.80;;;2.60;;
60847;SDS011;46681;47.696;9.140;2023-06-14T08:34:08;3.23;;;2.33;;
60847;SDS011;46681;47.696;9.140;2023-06-14T08:36:39;2.77;;;2.57;;
60847;SDS011;46681;47.696;9.140;2023-06-14T08:39:04;2.70;;;2.43;;
60847;SDS011;46681;47.696;9.140;2023-06-14T08:41:39;2.63;;;2.43;;
60847;SDS011;46681;47.696;9.140;2023-06-14T08:44:17;3.33;;;2.17;;
60847;SDS011;46681;47.696;9.140;2023-06-14T08:47:04;2.43;;;2.23;;
60847;SDS011;46681;47.696;9.140;2023-06-14T08:50:06;3.53;;;2.47;;
60847;SDS011;46681;47.696;9.140;2023-06-14T08:52:56;3.37;;;2.70;;
60847;SDS011;46681;47.696;9.140;2023-06-14T09:02:38;2.77;;;2.33;;
60847;SDS011;46681;47.696;9.140;2023-06-14T09:05:06;3.30;;;2.70;;
60847;SDS011;46681;47.696;9.140;2023-06-14T09:14:02;2.53;;;2.33;;
60847;SDS011;46681;47.696;9.140;2023-06-14T09:16:33;3.27;;;2.80;;
60847;SDS011;46681;47.696;9.140;2023-06-14T09:19:24;2.50;;;2.33;;
60847;SDS011;46681;47.696;9.140;2023-06-14T09:25:11;5.70;;;2.50;;
60847;SDS011;46681;47.696;9.140;2023-06-14T09:28:00;3.03;;;2.50;;
60847;SDS011;46681;47.696;9.140;2023-06-14T09:30:49;2.43;;;2.23;;
60847;SDS011;46681;47.696;9.140;2023-06-14T09:33:32;3.23;;;2.20;;
60847;SDS011;46681;47.696;9.140;2023-06-14T09:42:05;2.17;;;2.07;;
60847;SDS011;46681;47.696;9.140;2023-06-14T09:45:07;13.33;;;3.00;;
60847;SDS011;46681;47.696;9.140;2023-06-14T09:47:51;3.27;;;2.47;;
60847;SDS011;46681;47.696;9.140;2023-06-14T09:56:44;4.73;;;2.43;;
60847;SDS011;46681;47.696;9.140;2023-06-14T09:59:56;2.80;;;2.50;;
60847;SDS011;46681;47.696;9.140;2023-06-14T10:02:57;3.37;;;2.70;;
60847;SDS011;46681;47.696;9.140;2023-06-14T10:11:56;6.07;;;2.73;;
60847;SDS011;46681;47.696;9.140;2023-06-14T10:14:53;2.87;;;2.20;;
60847;SDS011;46681;47.696;9.140;2023-06-14T10:24:04;5.30;;;2.70;;
60847;SDS011;46681;47.696;9.140;2023-06-14T10:33:09;3.27;;;2.43;;
60847;SDS011;46681;47.696;9.140;2023-06-14T10:39:06;3.60;;;2.53;;
60847;SDS011;46681;47.696;9.140;2023-06-14T11:36:47;3.50;;;2.70;;
60847;SDS011;46681;47.696;9.140;2023-06-14T11:39:36;2.40;;;2.20;;
60847;SDS011;46681;47.696;9.140;2023-06-14T11:54:37;3.87;;;2.27;;
60847;SDS011;46681;47.696;9.140;2023-06-14T11:57:26;2.67;;;2.47;;
60847;SDS011;46681;47.696;9.140;2023-06-14T12:06:26;2.90;;;2.13;;
60847;SDS011;46681;47.696;9.140;2023-06-14T12:15:41;2.60;;;2.40;;
60847;SDS011;46681;47.696;9.140;2023-06-14T12:18:54;3.87;;;2.40;;
60847;SDS011;46681;47.696;9.140;2023-06-14T12:21:39;2.77;;;2.57;;
60847;SDS011;46681;47.696;9.140;2023-06-14T12:27:31;5.43;;;2.57;;
60847;SDS011;46681;47.696;9.140;2023-06-14T12:34:21;2.50;;;2.30;;
60847;SDS011;46681;47.696;9.140;2023-06-14T12:43:42;3.83;;;2.40;;
60847;SDS011;46681;47.696;9.140;2023-06-14T12:46:07;4.20;;;2.03;;
60847;SDS011;46681;47.696;9.140;2023-06-14T12:58:36;5.00;;;2.93;;
60847;SDS011;46681;47.696;9.140;2023-06-14T13:07:46;4.80;;;2.37;;
60847;SDS011;46681;47.696;9.140;2023-06-14T13:10:12;5.27;;;2.30;;
60847;SDS011;46681;47.696;9.140;2023-06-14T13:16:24;5.63;;;2.50;;
60847;SDS011;46681;47.696;9.140;2023-06-14T13:25:31;2.30;;;2.10;;
60847;SDS011;46681;47.696;9.140;2023-06-14T13:27:58;3.03;;;2.20;;
60847;SDS011;46681;47.696;9.140;2023-06-14T13:37:35;2.37;;;2.17;;
60847;SDS011;46681;47.696;9.140;2023-06-14T13:43:39;2.73;;;2.00;;
60847;SDS011;46681;47.696;9.140;2023-06-14T13:52:54;4.10;;;2.20;;
60847;SDS011;46681;47.696;9.140;2023-06-14T13:58:30;4.17;;;2.40;;
60847;SDS011;46681;47.696;9.140;2023-06-14T14:04:08;2.37;;;2.10;;
60847;SDS011;46681;47.696;9.140;2023-06-14T14:16:18;1.97;;;1.87;;
60847;SDS011;46681;47.696;9.140;2023-06-14T14:18:50;2.30;;;2.10;;
60847;SDS011;46681;47.696;9.140;2023-06-14T14:21:35;2.30;;;2.10;;
60847;SDS011;46681;47.696;9.140;2023-06-14T14:24:15;2.23;;;2.00;;
60847;SDS011;46681;47.696;9.140;2023-06-14T14:32:50;5.33;;;2.30;;
60847;SDS011;46681;47.696;9.140;2023-06-14T14:35:44;2.83;;;2.40;;
60847;SDS011;46681;47.696;9.140;2023-06-14T14:38:45;2.90;;;2.57;;
60847;SDS011;46681;47.696;9.140;2023-06-14T14:41:41;3.70;;;2.40;;
60847;SDS011;46681;47.696;9.140;2023-06-14T14:44:24;3.20;;;2.20;;
60847;SDS011;46681;47.696;9.140;2023-06-14T14:53:36;3.30;;;2.40;;
60847;SDS011;46681;47.696;9.140;2023-06-14T14:56:17;4.97;;;2.00;;
60847;SDS011;46681;47.696;9.140;2023-06-14T14:59:09;1.80;;;1.70;;
60847;SDS011;46681;47.696;9.140;2023-06-14T15:02:09;2.40;;;1.90;;
60847;SDS011;46681;47.696;9.140;2023-06-14T15:05:12;2.47;;;2.27;;
60847;SDS011;46681;47.696;9.140;2023-06-14T15:08:08;4.20;;;2.30;;
60847;SDS011;46681;47.696;9.140;2023-06-14T15:11:26;4.10;;;2.40;;
60847;SDS011;46681;47.696;9.140;2023-06-14T15:19:58;3.17;;;2.10;;
60847;SDS011;46681;47.696;9.140;2023-06-14T15:37:27;2.63;;;2.43;;
60847;SDS011;46681;47.696;9.140;2023-06-14T15:40:18;2.50;;;2.30;;
60847;SDS011;46681;47.696;9.140;2023-06-14T15:43:09;2.83;;;2.63;;
60847;SDS011;46681;47.696;9.140;2023-06-14T15:46:10;2.60;;;2.40;;
60847;SDS011;46681;47.696;9.140;2023-06-14T15:55:30;3.00;;;2.70;;
60847;SDS011;46681;47.696;9.140;2023-06-14T15:58:10;2.80;;;2.60;;
60847;SDS011;46681;47.696;9.140;2023-06-14T16:00:56;2.97;;;2.77;;
60847;SDS011;46681;47.696;9.140;2023-06-14T16:03:57;3.97;;;2.70;;
60847;SDS011;46681;47.696;9.140;2023-06-14T16:07:17;2.63;;;2.40;;
60847;SDS011;46681;47.696;9.140;2023-06-14T16:13:58;2.90;;;2.60;;
60847;SDS011;46681;47.696;9.140;2023-06-14T16:17:17;2.73;;;2.53;;
60847;SDS011;46681;47.696;9.140;2023-06-14T16:25:52;3.47;;;2.80;;
60847;SDS011;46681;47.696;9.140;2023-06-14T16:35:11;3.37;;;2.83;;
60847;SDS011;46681;47.696;9.140;2023-06-14T16:38:21;3.67;;;2.50;;
60847;SDS011;46681;47.696;9.140;2023-06-14T16:41:16;7.23;;;2.90;;
60847;SDS011;46681;47.696;9.140;2023-06-14T16:44:01;2.90;;;2.70;;
60847;SDS011;46681;47.696;9.140;2023-06-14T16:46:29;3.83;;;2.90;;
60847;SDS011;46681;47.696;9.140;2023-06-14T16:49:19;3.37;;;3.07;;
60847;SDS011;46681;47.696;9.140;2023-06-14T16:51:56;4.23;;;3.10;;
60847;SDS011;46681;47.696;9.140;2023-06-14T16:54:35;3.10;;;2.83;;
60847;SDS011;46681;47.696;9.140;2023-06-14T17:00:13;3.27;;;2.50;;
60847;SDS011;46681;47.696;9.140;2023-06-14T17:02:39;10.07;;;2.90;;
60847;SDS011;46681;47.696;9.140;2023-06-14T17:05:14;3.13;;;2.83;;
60847;SDS011;46681;47.696;9.140;2023-06-14T17:07:56;3.10;;;2.90;;
60847;SDS011;46681;47.696;9.140;2023-06-14T17:10:31;6.80;;;3.07;;
60847;SDS011;46681;47.696;9.140;2023-06-14T17:13:03;3.13;;;2.87;;
60847;SDS011;46681;47.696;9.140;2023-06-14T17:15:38;3.83;;;2.83;;
60847;SDS011;46681;47.696;9.140;2023-06-14T17:18:24;4.17;;;2.97;;
60847;SDS011;46681;47.696;9.140;2023-06-14T17:21:02;4.60;;;2.80;;
60847;SDS011;46681;47.696;9.140;2023-06-14T17:23:39;3.10;;;2.90;;
60847;SDS011;46681;47.696;9.140;2023-06-14T17:26:31;3.03;;;2.83;;
60847;SDS011;46681;47.696;9.140;2023-06-14T17:29:16;3.07;;;2.87;;
60847;SDS011;46681;47.696;9.140;2023-06-14T17:31:53;4.77;;;3.00;;
60847;SDS011;46681;47.696;9.140;2023-06-14T17:34:19;4.47;;;2.87;;
60847;SDS011;46681;47.696;9.140;2023-06-14T17:37:01;4.53;;;3.00;;
60847;SDS011;46681;47.696;9.140;2023-06-14T17:39:29;2.67;;;2.47;;
60847;SDS011;46681;47.696;9.140;2023-06-14T17:41:56;2.67;;;2.47;;
60847;SDS011;46681;47.696;9.140;2023-06-14T17:47:47;2.57;;;2.37;;
60847;SDS011;46681;47.696;9.140;2023-06-14T17:51:17;4.63;;;2.97;;
60847;SDS011;46681;47.696;9.140;2023-06-14T17:57:22;3.30;;;3.00;;
60847;SDS011;46681;47.696;9.140;2023-06-14T17:59:54;3.03;;;2.83;;
60847;SDS011;46681;47.696;9.140;2023-06-14T18:02:24;2.80;;;2.60;;
60847;SDS011;46681;47.696;9.140;2023-06-14T18:04:51;3.33;;;3.00;;
60847;SDS011;46681;47.696;9.140;2023-06-14T18:07:24;3.43;;;2.87;;
60847;SDS011;46681;47.696;9.140;2023-06-14T18:10:09;3.30;;;3.00;;
60847;SDS011;46681;47.696;9.140;2023-06-14T18:13:17;2.93;;;2.73;;
60847;SDS011;46681;47.696;9.140;2023-06-14T18:15:49;4.37;;;2.90;;
60847;SDS011;46681;47.696;9.140;2023-06-14T18:21:25;2.93;;;2.73;;
60847;SDS011;46681;47.696;9.140;2023-06-14T18:24:15;4.17;;;3.07;;
60847;SDS011;46681;47.696;9.140;2023-06-14T18:26:58;4.30;;;2.70;;
60847;SDS011;46681;47.696;9.140;2023-06-14T18:29:49;3.17;;;2.83;;
60847;SDS011;46681;47.696;9.140;2023-06-14T18:32:38;3.00;;;2.80;;
60847;SDS011;46681;47.696;9.140;2023-06-14T18:35:05;3.03;;;2.73;;
60847;SDS011;46681;47.696;9.140;2023-06-14T18:37:46;3.37;;;3.07;;
60847;SDS011;46681;47.696;9.140;2023-06-14T18:40:29;3.00;;;2.80;;
60847;SDS011;46681;47.696;9.140;2023-06-14T18:43:21;3.00;;;2.77;;
60847;SDS011;46681;47.696;9.140;2023-06-14T18:45:55;3.33;;;3.03;;
60847;SDS011;46681;47.696;9.140;2023-06-14T18:48:21;3.23;;;2.93;;
60847;SDS011;46681;47.696;9.140;2023-06-14T18:50:51;3.63;;;3.13;;
60847;SDS011;46681;47.696;9.140;2023-06-14T18:53:18;5.30;;;3.47;;
60847;SDS011;46681;47.696;9.140;2023-06-14T18:55:56;3.20;;;3.00;;
60847;SDS011;46681;47.696;9.140;2023-06-14T18:58:41;4.03;;;3.03;;
60847;SDS011;46681;47.696;9.140;2023-06-14T19:04:18;3.70;;;3.20;;
60847;SDS011;46681;47.696;9.140;2023-06-14T19:06:47;5.67;;;3.13;;
60847;SDS011;46681;47.696;9.140;2023-06-14T19:09:27;4.50;;;3.00;;
60847;SDS011;46681;47.696;9.140;2023-06-14T19:12:21;3.40;;;3.10;;
60847;SDS011;46681;47.696;9.140;2023-06-14T19:14:47;4.90;;;3.10;;
60847;SDS011;46681;47.696;9.140;2023-06-14T19:17:14;4.07;;;3.00;;
60847;SDS011;46681;47.696;9.140;2023-06-14T19:19:46;3.60;;;2.90;;
60847;SDS011;46681;47.696;9.140;2023-06-14T19:22:12;3.33;;;3.03;;
60847;SDS011;46681;47.696;9.140;2023-06-14T19:24:48;2.87;;;2.67;;
60847;SDS011;46681;47.696;9.140;2023-06-14T19:27:22;4.90;;;3.00;;
60847;SDS011;46681;47.696;9.140;2023-06-14T19:29:51;3.10;;;2.80;;
60847;SDS011;46681;47.696;9.140;2023-06-14T19:32:21;2.90;;;2.70;;
60847;SDS011;46681;47.696;9.140;2023-06-14T19:34:50;2.93;;;2.73;;
60847;SDS011;46681;47.696;9.140;2023-06-14T19:37:18;5.43;;;2.97;;
60847;SDS011;46681;47.696;9.140;2023-06-14T19:39:45;3.70;;;3.10;;
60847;SDS011;46681;47.696;9.140;2023-06-14T19:42:11;3.53;;;3.23;;
60847;SDS011;46681;47.696;9.140;2023-06-14T19:44:44;3.90;;;3.30;;
60847;SDS011;46681;47.696;9.140;2023-06-14T19:47:20;3.23;;;2.80;;
60847;SDS011;46681;47.696;9.140;2023-06-14T19:49:50;3.20;;;2.90;;
60847;SDS011;46681;47.696;9.140;2023-06-14T19:52:33;3.23;;;3.00;;
60847;SDS011;46681;47.696;9.140;2023-06-14T19:55:25;4.10;;;3.20;;
60847;SDS011;46681;47.696;9.140;2023-06-14T19:57:55;4.17;;;3.13;;
60847;SDS011;46681;47.696;9.140;2023-06-14T20:00:21;3.13;;;2.83;;
60847;SDS011;46681;47.696;9.140;2023-06-14T20:02:48;3.47;;;2.70;;
60847;SDS011;46681;47.696;9.140;2023-06-14T20:05:14;3.03;;;2.83;;
60847;SDS011;46681;47.696;9.140;2023-06-14T20:07:41;3.17;;;2.83;;
60847;SDS011;46681;47.696;9.140;2023-06-14T20:10:11;3.20;;;2.60;;
60847;SDS011;46681;47.696;9.140;2023-06-14T20:12:39;3.13;;;2.83;;
60847;SDS011;46681;47.696;9.140;2023-06-14T20:15:05;3.40;;;3.10;;
60847;SDS011;46681;47.696;9.140;2023-06-14T20:17:32;3.63;;;3.20;;
60847;SDS011;46681;47.696;9.140;2023-06-14T20:20:00;3.63;;;2.70;;
60847;SDS011;46681;47.696;9.140;2023-06-14T20:22:31;5.47;;;2.90;;
60847;SDS011;46681;47.696;9.140;2023-06-14T20:25:07;4.77;;;2.90;;
60847;SDS011;46681;47.696;9.140;2023-06-14T20:27:44;3.40;;;3.00;;
60847;SDS011;46681;47.696;9.140;2023-06-14T20:30:13;3.43;;;3.10;;
60847;SDS011;46681;47.696;9.140;2023-06-14T20:32:40;4.00;;;3.10;;
60847;SDS011;46681;47.696;9.140;2023-06-14T20:35:06;4.83;;;2.90;;
60847;SDS011;46681;47.696;9.140;2023-06-14T20:37:32;3.53;;;3.23;;
60847;SDS011;46681;47.696;9.140;2023-06-14T20:39:57;4.20;;;2.97;;